KR-0315 weather

Haeundae Doosan We’ve the Zenith Heliports
Busan, Busan Gwang'yeogsi, South Korea

Public forecast

Using degrees Celsius for public forecast. Weather courtesy of forecast.io.

METAR (pilot weather report)

Closest report is Gimhae International Airport, 10.3 nm (19.0 km) W. Retrieved 2019/08/26 00:00 UTC (6 minutes ago):

RKPK 260000Z 36004KT 9000 NSC 24/20 Q1013

TAF (pilot weather forecast)

Forecast is more than 12 hours old.

Closest forecast is Gimhae International Airport, 10.3 nm (19.0 km) W. Retrieved 2019/08/25 00:00 UTC (1 day ago):

TAF COR RKPK 252300Z 2600/2706 03006KT 9999 SCT030 BKN200 TX29/2604Z TN23/2620Z BECMG 2602/2603 15008KT BECMG 2613/2614 03006KT 8000 BKN030 OVC100 BECMG 2615/2616 03008KT 4800 -RA BR BKN015 OVC030